Terminal Aerodrome Forecast
Issued by NWS Sioux Falls, SD

Home | Current Version | Previous Version | Text Only | Print | Product List | Glossary On
Versions: 1 2 3 4 5 6 7 8 9 10 11 12 13 14
000
FTUS43 KFSD 111700 RRA
TAFFSD
TAF
KFSD 111743Z 1118/1218 21009KT P6SM SCT023 OVC050
      TEMPO 1118/1121 BKN023
     FM112100 VRB06KT P6SM SCT030 BKN200
     FM120800 07009KT P6SM SCT050 BKN070
      TEMPO 1209/1212 5SM TSRA BKN050CB=

USA.gov is the U.S. government's official web portal to all federal, state and local government web resources and services.